Time;durP1;ratioP1;P1;durP2;ratioP2;P2;SDS_P1;SDS_P2;PMS_P1;PMS_P2;Temp;Humidity;BMP_temperature;BMP_pressure;BME280_temperature;BME280_humidity;BME280_pressure;Samples;Min_cycle;Max_cycle;Signal;HPM_P1;HPM_P2
2022/09/03 00:00:58;;;;;;;35.13;24.17;;;;;;;;;;5059617;28;20036;-83
2022/09/03 00:03:27;;;;;;;33.42;22.73;;;;;;;;;;5074909;28;20028;-79
2022/09/03 00:06:01;;;;;;;27.90;21.98;;;;;;;;;;5069993;28;20021;-83
2022/09/03 00:08:30;;;;;;;41.83;24.83;;;;;;;;;;5054383;28;20021;-85
2022/09/03 00:10:59;;;;;;;43.38;28.35;;;;;;;;;;5054878;28;20036;-84
2022/09/03 00:13:39;;;;;;;34.63;25.17;;;;;;;;;;5060678;28;20123;-85
2022/09/03 00:16:10;;;;;;;28.77;21.92;;;;;;;;;;5055168;28;20050;-86
2022/09/03 00:18:41;;;;;;;30.20;21.00;;;;;;;;;;5059664;28;20028;-85
2022/09/03 00:21:09;;;;;;;37.97;23.52;;;;;;;;;;5051008;28;20021;-85
2022/09/03 00:23:39;;;;;;;33.90;22.95;;;;;;;;;;5050779;28;20025;-85
2022/09/03 00:26:12;;;;;;;28.35;21.00;;;;;;;;;;5053802;28;20029;-84
2022/09/03 00:29:02;;;;;;;30.35;22.70;;;;;;;;;;5053578;28;20386;-85
2022/09/03 00:31:36;;;;;;;38.60;22.13;;;;;;;;;;5049033;28;20040;-83
2022/09/03 00:34:02;;;;;;;;;;;;;;;;;;5051152;28;20117;-83
2022/09/03 00:36:33;;;;;;;36.22;23.92;;;;;;;;;;5051820;28;19948;-82
2022/09/03 00:38:59;;;;;;;37.10;25.75;;;;;;;;;;5060035;28;20048;-82
2022/09/03 00:41:48;;;;;;;34.47;24.65;;;;;;;;;;5069205;28;20112;-81
2022/09/03 00:44:30;;;;;;;34.13;25.05;;;;;;;;;;5050055;28;20476;-82
2022/09/03 00:47:17;;;;;;;38.55;25.25;;;;;;;;;;5064650;28;20472;-82
2022/09/03 00:49:43;;;;;;;35.35;24.10;;;;;;;;;;5053625;28;20029;-81
2022/09/03 00:52:21;;;;;;;31.27;23.23;;;;;;;;;;5053970;28;20040;-82
2022/09/03 00:54:53;;;;;;;31.38;23.77;;;;;;;;;;5067882;28;20029;-81
2022/09/03 00:57:24;;;;;;;36.03;22.70;;;;;;;;;;5068668;28;20032;-81
2022/09/03 01:00:08;;;;;;;31.35;22.42;;;;;;;;;;5054079;28;20086;-80
2022/09/03 01:02:34;;;;;;;29.20;22.10;;;;;;;;;;5041595;28;20061;-81
2022/09/03 01:05:06;;;;;;;27.38;21.40;;;;;;;;;;5053881;28;20033;-83
2022/09/03 01:07:37;;;;;;;30.55;23.38;;;;;;;;;;5040356;28;20028;-81
2022/09/03 01:10:10;;;;;;;23.42;19.65;;;;;;;;;;5053678;28;20123;-82
2022/09/03 01:12:42;;;;;;;29.03;21.00;;;;;;;;;;5058912;28;20111;-82
2022/09/03 01:15:11;;;;;;;32.08;22.23;;;;;;;;;;5057854;28;20029;-82
2022/09/03 01:17:43;;;;;;;26.50;20.48;;;;;;;;;;5057268;28;20023;-79
2022/09/03 01:20:39;;;;;;;29.17;21.48;;;;;;;;;;5056856;28;20467;-81
2022/09/03 01:23:08;;;;;;;30.25;19.48;;;;;;;;;;5037317;28;20480;-80
2022/09/03 01:25:53;;;;;;;28.02;18.95;;;;;;;;;;5053358;28;20036;-82
2022/09/03 01:28:22;;;;;;;27.25;20.25;;;;;;;;;;5059265;28;20114;-81
2022/09/03 01:30:54;;;;;;;35.03;22.60;;;;;;;;;;5041170;28;20037;-82
2022/09/03 01:33:32;;;;;;;35.83;24.40;;;;;;;;;;5061753;28;20018;-81
2022/09/03 01:36:21;;;;;;;32.70;24.63;;;;;;;;;;5062760;28;20108;-81
2022/09/03 01:38:51;;;;;;;36.08;24.50;;;;;;;;;;5040507;28;20044;-80
2022/09/03 01:44:24;;;;;;;36.95;25.02;;;;;;;;;;5064747;28;20514;-81
2022/09/03 01:47:10;;;;;;;38.20;26.42;;;;;;;;;;5053051;28;20108;-80
2022/09/03 01:49:56;;;;;;;38.97;26.30;;;;;;;;;;5052739;28;20033;-80
2022/09/03 01:52:33;;;;;;;40.25;26.42;;;;;;;;;;5057694;28;20075;-80
2022/09/03 01:54:59;;;;;;;36.10;25.65;;;;;;;;;;5067430;28;20085;-80
2022/09/03 01:57:44;;;;;;;42.50;26.25;;;;;;;;;;5067686;28;20468;-80
2022/09/03 02:00:12;;;;;;;35.97;25.58;;;;;;;;;;5052496;28;20028;-80
2022/09/03 02:02:39;;;;;;;38.78;25.40;;;;;;;;;;5044999;28;20120;-81
2022/09/03 02:05:21;;;;;;;37.70;25.65;;;;;;;;;;5049649;28;20975;-81
2022/09/03 02:07:51;;;;;;;41.53;27.73;;;;;;;;;;5052883;28;20025;-81
2022/09/03 02:10:24;;;;;;;35.92;25.25;;;;;;;;;;5052735;28;20040;-78
2022/09/03 02:12:56;;;;;;;37.45;27.27;;;;;;;;;;5052645;28;20024;-78
2022/09/03 02:15:24;;;;;;;34.33;25.10;;;;;;;;;;5067022;28;20055;-78
2022/09/03 02:17:52;;;;;;;34.15;24.17;;;;;;;;;;5066435;28;20024;-78
2022/09/03 02:20:20;;;;;;;35.85;24.13;;;;;;;;;;5053034;28;20017;-80
2022/09/03 02:22:48;;;;;;;32.78;24.77;;;;;;;;;;5066624;28;20102;-82
2022/09/03 02:25:14;;;;;;;36.45;26.52;;;;;;;;;;5064763;28;20021;-85
2022/09/03 02:27:41;;;;;;;39.88;24.88;;;;;;;;;;5059455;28;20025;-79
2022/09/03 02:30:07;;;;;;;38.65;24.92;;;;;;;;;;5038625;28;20388;-82
2022/09/03 02:32:33;;;;;;;42.53;25.35;;;;;;;;;;5052005;28;20021;-82
2022/09/03 02:34:59;;;;;;;35.97;26.10;;;;;;;;;;5066214;28;20028;-78
2022/09/03 02:37:25;;;;;;;41.33;29.90;;;;;;;;;;5051528;28;20025;-79
2022/09/03 02:39:51;;;;;;;46.47;30.90;;;;;;;;;;5092212;28;20551;-78
2022/09/03 02:42:18;;;;;;;33.97;26.20;;;;;;;;;;5095497;28;20074;-79
2022/09/03 02:44:47;;;;;;;38.30;26.77;;;;;;;;;;5080555;28;20027;-79
2022/09/03 02:47:14;;;;;;;35.42;27.90;;;;;;;;;;5104741;28;20111;-78
2022/09/03 02:49:40;;;;;;;35.97;24.75;;;;;;;;;;5074983;28;20032;-80
2022/09/03 02:52:11;;;;;;;35.30;25.75;;;;;;;;;;5089626;28;20024;-80
2022/09/03 02:54:40;;;;;;;34.47;23.42;;;;;;;;;;5108919;28;20497;-81
2022/09/03 02:57:10;;;;;;;36.33;24.38;;;;;;;;;;5093587;28;20119;-83
2022/09/03 02:59:38;;;;;;;36.17;23.58;;;;;;;;;;5097962;28;20024;-81
2022/09/03 03:02:04;;;;;;;42.80;27.52;;;;;;;;;;5072644;28;20103;-81
2022/09/03 03:04:31;;;;;;;43.97;26.15;;;;;;;;;;5109534;28;20062;-82
2022/09/03 03:06:57;;;;;;;38.42;26.30;;;;;;;;;;5112518;28;20030;-82
2022/09/03 03:09:23;;;;;;;37.75;26.83;;;;;;;;;;5089631;28;20528;-82
2022/09/03 03:11:50;;;;;;;34.88;24.63;;;;;;;;;;5099911;28;20020;-82
2022/09/03 03:14:16;;;;;;;37.40;26.52;;;;;;;;;;5091130;28;20020;-83
2022/09/03 03:16:42;;;;;;;41.13;27.02;;;;;;;;;;5068675;28;20024;-83
2022/09/03 03:19:08;;;;;;;32.55;24.45;;;;;;;;;;5098083;27;20024;-79
2022/09/03 03:21:34;;;;;;;37.15;25.38;;;;;;;;;;5085071;28;20024;-82
2022/09/03 03:24:01;;;;;;;35.88;24.08;;;;;;;;;;5094184;28;20021;-78
2022/09/03 03:26:27;;;;;;;47.63;26.00;;;;;;;;;;5100157;28;20017;-86
2022/09/03 03:28:58;;;;;;;38.58;25.23;;;;;;;;;;5081601;28;20114;-80
2022/09/03 03:31:24;;;;;;;36.72;26.60;;;;;;;;;;5108678;28;20069;-84
2022/09/03 03:33:52;;;;;;;34.92;25.70;;;;;;;;;;5074897;28;20032;-83
2022/09/03 03:36:18;;;;;;;35.80;26.55;;;;;;;;;;5122394;27;20058;-77
2022/09/03 03:38:44;;;;;;;37.42;25.67;;;;;;;;;;5073383;28;20047;-79
2022/09/03 03:41:15;;;;;;;39.25;26.52;;;;;;;;;;5097483;28;20024;-79
2022/09/03 03:43:43;;;;;;;38.33;25.37;;;;;;;;;;5100257;27;20047;-79
2022/09/03 03:46:10;;;;;;;37.03;27.02;;;;;;;;;;5081463;28;20020;-78
2022/09/03 03:48:37;;;;;;;39.30;26.27;;;;;;;;;;5087807;28;20020;-79
2022/09/03 03:51:05;;;;;;;39.70;28.52;;;;;;;;;;5091951;28;20039;-80
2022/09/03 03:53:31;;;;;;;35.83;28.05;;;;;;;;;;5110651;28;20016;-78
2022/09/03 03:55:58;;;;;;;39.53;29.17;;;;;;;;;;5090482;28;20024;-78
2022/09/03 03:58:25;;;;;;;50.10;27.80;;;;;;;;;;5096372;28;20026;-79
2022/09/03 04:00:52;;;;;;;45.72;28.92;;;;;;;;;;5107277;28;20047;-80
2022/09/03 04:03:18;;;;;;;42.45;27.13;;;;;;;;;;5074267;28;20016;-79
2022/09/03 04:05:54;;;;;;;37.47;26.42;;;;;;;;;;5087542;28;20020;-79
2022/09/03 04:08:20;;;;;;;40.42;28.48;;;;;;;;;;5121479;28;20024;-79
2022/09/03 04:10:47;;;;;;;45.55;27.77;;;;;;;;;;5075122;28;20051;-81
2022/09/03 04:13:13;;;;;;;42.60;27.10;;;;;;;;;;5074225;28;20024;-79
2022/09/03 04:15:41;;;;;;;42.65;29.73;;;;;;;;;;5122190;28;20556;-84
2022/09/03 04:18:07;;;;;;;54.60;35.42;;;;;;;;;;5108188;28;20470;-85
2022/09/03 04:20:33;;;;;;;38.58;28.17;;;;;;;;;;5093845;28;20101;-84
2022/09/03 04:23:02;;;;;;;56.83;31.63;;;;;;;;;;5114533;28;20015;-83
2022/09/03 04:25:28;;;;;;;54.83;35.17;;;;;;;;;;5083421;28;20039;-78
2022/09/03 04:27:54;;;;;;;39.42;29.45;;;;;;;;;;5111528;28;20024;-81
2022/09/03 04:30:20;;;;;;;46.17;29.63;;;;;;;;;;5077810;28;20036;-84
2022/09/03 04:32:53;;;;;;;40.95;25.45;;;;;;;;;;5099921;28;20020;-84
2022/09/03 04:35:24;;;;;;;41.80;25.27;;;;;;;;;;5112071;28;20535;-82
2022/09/03 04:37:50;;;;;;;37.85;24.42;;;;;;;;;;5111688;28;20131;-84
2022/09/03 04:40:16;;;;;;;39.63;25.95;;;;;;;;;;5095638;28;20506;-86
2022/09/03 04:42:43;;;;;;;37.22;25.30;;;;;;;;;;5119244;27;20029;-85
2022/09/03 04:45:10;;;;;;;38.15;26.35;;;;;;;;;;5091690;28;20065;-85
2022/09/03 04:47:36;;;;;;;42.25;25.58;;;;;;;;;;5077616;28;20065;-84
2022/09/03 04:50:05;;;;;;;34.15;24.10;;;;;;;;;;5111164;28;20036;-84
2022/09/03 04:52:31;;;;;;;33.35;24.90;;;;;;;;;;5108507;28;20027;-88
2022/09/03 04:54:58;;;;;;;31.48;23.48;;;;;;;;;;5086511;28;20016;-86
2022/09/03 04:57:24;;;;;;;35.05;23.02;;;;;;;;;;5101709;28;20047;-87
2022/09/03 04:59:50;;;;;;;35.33;24.88;;;;;;;;;;5106513;28;20054;-87
2022/09/03 05:02:16;;;;;;;37.30;25.75;;;;;;;;;;5107206;28;20021;-87
2022/09/03 05:04:42;;;;;;;30.98;25.83;;;;;;;;;;5080157;28;20409;-86
2022/09/03 05:07:08;;;;;;;34.40;25.15;;;;;;;;;;5077156;28;20401;-86
2022/09/03 05:09:34;;;;;;;35.50;23.60;;;;;;;;;;5111340;28;20055;-84
2022/09/03 05:12:00;;;;;;;42.05;24.10;;;;;;;;;;5096140;28;20052;-82
2022/09/03 05:14:26;;;;;;;46.58;25.85;;;;;;;;;;5115658;28;20034;-82
2022/09/03 05:16:52;;;;;;;41.33;27.55;;;;;;;;;;5102188;28;20023;-82
2022/09/03 05:19:18;;;;;;;34.78;25.05;;;;;;;;;;5094731;28;20024;-83
2022/09/03 05:21:44;;;;;;;44.03;24.02;;;;;;;;;;5111021;28;20126;-83
2022/09/03 05:24:10;;;;;;;51.80;25.52;;;;;;;;;;5094672;28;20012;-83
2022/09/03 05:26:38;;;;;;;32.90;22.35;;;;;;;;;;5095085;28;20105;-83
2022/09/03 05:29:06;;;;;;;33.58;22.20;;;;;;;;;;5094800;28;20505;-83
2022/09/03 05:31:32;;;;;;;29.95;22.00;;;;;;;;;;5094612;28;20397;-81
2022/09/03 05:34:01;;;;;;;32.97;22.45;;;;;;;;;;5102777;28;20162;-81
2022/09/03 05:36:29;;;;;;;35.22;23.58;;;;;;;;;;5076561;28;20020;-82
2022/09/03 05:38:56;;;;;;;36.95;22.48;;;;;;;;;;5094839;28;20044;-81
2022/09/03 05:41:23;;;;;;;29.50;22.15;;;;;;;;;;5098463;28;20036;-81
2022/09/03 05:43:54;;;;;;;27.98;21.05;;;;;;;;;;5076213;28;20046;-81
2022/09/03 05:46:21;;;;;;;36.97;23.48;;;;;;;;;;5075380;28;20032;-81
2022/09/03 05:48:47;;;;;;;28.60;21.98;;;;;;;;;;5071660;28;20053;-81
2022/09/03 05:51:17;;;;;;;35.58;25.05;;;;;;;;;;5110063;27;20111;-82
2022/09/03 05:53:47;;;;;;;40.40;23.27;;;;;;;;;;5110443;28;20024;-82
2022/09/03 05:56:16;;;;;;;33.38;23.33;;;;;;;;;;5094493;28;20020;-83
2022/09/03 05:58:44;;;;;;;36.63;24.42;;;;;;;;;;5114147;27;20216;-85
2022/09/03 06:01:23;;;;;;;40.72;23.90;;;;;;;;;;5096684;28;20023;-82
2022/09/03 06:03:54;;;;;;;35.28;23.25;;;;;;;;;;5082255;28;20019;-83
2022/09/03 06:06:24;;;;;;;42.80;23.70;;;;;;;;;;5104059;28;20042;-84
2022/09/03 06:08:50;;;;;;;31.55;24.63;;;;;;;;;;5078701;28;20466;-82
2022/09/03 06:11:17;;;;;;;29.42;21.88;;;;;;;;;;5114877;28;20064;-83
2022/09/03 06:13:43;;;;;;;33.70;23.27;;;;;;;;;;5081328;28;20028;-81
2022/09/03 06:16:09;;;;;;;29.13;20.90;;;;;;;;;;5093952;28;20012;-82
2022/09/03 06:18:35;;;;;;;29.83;21.63;;;;;;;;;;5121196;27;20023;-83
2022/09/03 06:21:04;;;;;;;27.55;21.65;;;;;;;;;;5095120;28;20022;-83
2022/09/03 06:23:31;;;;;;;32.30;21.05;;;;;;;;;;5083827;28;20047;-83
2022/09/03 06:26:04;;;;;;;31.85;20.70;;;;;;;;;;5097803;28;20026;-77
2022/09/03 06:28:33;;;;;;;;;;;;;;;;;;5109979;28;20077;-82
2022/09/03 06:31:00;;;;;;;29.58;22.42;;;;;;;;;;5076299;28;19912;-82
2022/09/03 06:33:26;;;;;;;32.13;22.58;;;;;;;;;;5093667;28;20020;-80
2022/09/03 06:35:56;;;;;;;43.55;25.73;;;;;;;;;;5090610;28;20467;-82
2022/09/03 06:38:23;;;;;;;39.50;24.30;;;;;;;;;;5093302;28;20435;-83
2022/09/03 06:40:53;;;;;;;29.58;20.55;;;;;;;;;;5094930;28;20025;-82
2022/09/03 06:43:19;;;;;;;37.67;22.45;;;;;;;;;;5094198;28;20035;-84
2022/09/03 06:45:52;;;;;;;50.35;24.83;;;;;;;;;;5122854;27;20134;-83
2022/09/03 06:48:18;;;;;;;36.13;22.20;;;;;;;;;;5093142;28;20028;-76
2022/09/03 06:50:52;;;;;;;42.25;23.38;;;;;;;;;;5092397;28;20035;-77
2022/09/03 06:53:19;;;;;;;51.42;23.05;;;;;;;;;;5091858;28;20032;-77
2022/09/03 06:55:52;;;;;;;32.60;20.95;;;;;;;;;;5073947;28;20058;-77
2022/09/03 06:58:18;;;;;;;36.67;21.13;;;;;;;;;;5107744;28;20479;-77
2022/09/03 07:00:44;;;;;;;36.50;22.05;;;;;;;;;;5092450;28;20462;-77
2022/09/03 07:03:10;;;;;;;29.85;20.58;;;;;;;;;;5106473;27;20024;-76
2022/09/03 07:05:37;;;;;;;36.58;21.25;;;;;;;;;;5070083;28;20039;-76
2022/09/03 07:08:03;;;;;;;45.67;21.75;;;;;;;;;;5089353;28;20055;-79
2022/09/03 07:10:29;;;;;;;33.60;22.17;;;;;;;;;;5075629;28;20032;-79
2022/09/03 07:12:55;;;;;;;23.27;18.38;;;;;;;;;;5091729;28;20024;-77
2022/09/03 07:15:21;;;;;;;33.83;21.92;;;;;;;;;;5107475;28;20020;-78
2022/09/03 07:17:48;;;;;;;29.27;20.00;;;;;;;;;;5120547;27;20062;-76
2022/09/03 07:20:14;;;;;;;39.55;21.58;;;;;;;;;;5074665;28;20024;-79
2022/09/03 07:22:40;;;;;;;31.20;19.63;;;;;;;;;;5107811;28;20020;-77
2022/09/03 07:25:06;;;;;;;31.73;20.15;;;;;;;;;;5073261;28;20079;-76
2022/09/03 07:27:34;;;;;;;31.42;20.58;;;;;;;;;;5091814;28;20524;-77
2022/09/03 07:30:01;;;;;;;32.42;21.73;;;;;;;;;;5092943;28;20032;-78
2022/09/03 07:32:27;;;;;;;27.40;19.27;;;;;;;;;;5111352;28;20020;-76
2022/09/03 07:34:53;;;;;;;30.15;18.48;;;;;;;;;;5104331;28;20022;-77
2022/09/03 07:37:19;;;;;;;27.67;19.45;;;;;;;;;;5117253;28;20028;-77
2022/09/03 07:39:45;;;;;;;28.67;19.70;;;;;;;;;;5120037;28;20051;-77
2022/09/03 07:42:11;;;;;;;27.27;19.00;;;;;;;;;;5106270;28;20474;-77
2022/09/03 07:44:38;;;;;;;23.17;19.65;;;;;;;;;;5081043;28;20020;-76
2022/09/03 07:47:05;;;;;;;25.33;19.45;;;;;;;;;;5092727;28;20140;-77
2022/09/03 07:49:31;;;;;;;26.02;19.40;;;;;;;;;;5091904;28;20032;-78
2022/09/03 07:51:57;;;;;;;27.70;20.85;;;;;;;;;;5073424;28;20017;-77
2022/09/03 07:54:25;;;;;;;30.27;21.38;;;;;;;;;;5100688;28;20032;-78
2022/09/03 07:56:51;;;;;;;26.85;20.25;;;;;;;;;;5091296;28;20031;-75
2022/09/03 07:59:18;;;;;;;27.73;20.38;;;;;;;;;;5076461;28;20024;-78
2022/09/03 08:01:44;;;;;;;27.33;20.40;;;;;;;;;;5111182;28;20471;-76
2022/09/03 08:04:10;;;;;;;23.98;19.48;;;;;;;;;;5095392;28;20466;-78
2022/09/03 08:06:37;;;;;;;24.65;18.95;;;;;;;;;;5095793;28;20024;-78
2022/09/03 08:09:06;;;;;;;28.15;19.58;;;;;;;;;;5109461;28;20115;-79
2022/09/03 08:11:33;;;;;;;29.25;20.27;;;;;;;;;;5063231;28;20425;-79
2022/09/03 08:14:05;;;;;;;27.38;20.02;;;;;;;;;;5095242;28;20128;-79
2022/09/03 08:16:35;;;;;;;24.67;19.80;;;;;;;;;;5110835;28;20016;-77
2022/09/03 08:19:02;;;;;;;20.30;17.48;;;;;;;;;;5077318;28;20119;-80
2022/09/03 08:21:28;;;;;;;23.95;19.02;;;;;;;;;;5094766;28;20061;-78
2022/09/03 08:24:01;;;;;;;26.33;20.50;;;;;;;;;;5095132;28;20024;-78
2022/09/03 08:26:27;;;;;;;22.15;19.40;;;;;;;;;;5094735;28;20016;-78
2022/09/03 08:28:54;;;;;;;23.00;18.58;;;;;;;;;;5100011;28;20539;-79
2022/09/03 08:31:21;;;;;;;27.90;18.88;;;;;;;;;;5110366;28;20051;-77
2022/09/03 08:33:49;;;;;;;25.15;18.67;;;;;;;;;;5096187;28;20031;-79
2022/09/03 08:36:18;;;;;;;23.42;18.05;;;;;;;;;;5106083;28;20423;-77
2022/09/03 08:38:45;;;;;;;28.40;19.55;;;;;;;;;;5124385;27;20094;-79
2022/09/03 08:41:29;;;;;;;23.13;18.75;;;;;;;;;;5110438;28;20056;-79
2022/09/03 08:43:58;;;;;;;31.00;19.67;;;;;;;;;;5076315;28;20456;-79
2022/09/03 08:46:31;;;;;;;22.88;18.98;;;;;;;;;;5114590;28;20038;-77
2022/09/03 08:48:58;;;;;;;23.88;18.23;;;;;;;;;;5105584;28;20039;-77
2022/09/03 08:51:26;;;;;;;22.90;19.02;;;;;;;;;;5093626;28;20027;-77
2022/09/03 08:53:56;;;;;;;20.95;18.25;;;;;;;;;;5106012;28;20024;-77
2022/09/03 08:56:26;;;;;;;23.17;18.35;;;;;;;;;;5062793;28;20413;-76
2022/09/03 08:58:52;;;;;;;24.80;18.35;;;;;;;;;;5123516;27;20031;-78
2022/09/03 09:01:30;;;;;;;20.48;17.50;;;;;;;;;;5076924;28;20038;-76
2022/09/03 09:04:08;;;;;;;25.13;18.88;;;;;;;;;;5094281;28;20356;-80
2022/09/03 09:06:58;;;;;;;20.52;17.20;;;;;;;;;;5082076;28;20107;-77
2022/09/03 09:09:30;;;;;;;18.77;16.17;;;;;;;;;;5095153;28;20059;-78
2022/09/03 09:11:57;;;;;;;19.15;16.70;;;;;;;;;;5094258;28;20489;-77
2022/09/03 09:14:23;;;;;;;23.17;16.77;;;;;;;;;;5093674;28;20016;-78
2022/09/03 09:16:58;;;;;;;22.45;16.73;;;;;;;;;;5102076;28;20030;-78
2022/09/03 09:19:30;;;;;;;22.83;18.15;;;;;;;;;;5095930;28;20471;-80
2022/09/03 09:22:05;;;;;;;26.85;16.83;;;;;;;;;;5114962;27;20030;-78
2022/09/03 09:24:46;;;;;;;22.15;17.23;;;;;;;;;;5086834;28;20032;-78
2022/09/03 09:27:16;;;;;;;20.95;16.20;;;;;;;;;;5096118;28;20056;-78
2022/09/03 09:29:43;;;;;;;17.98;15.20;;;;;;;;;;5083309;28;20055;-77
2022/09/03 09:32:10;;;;;;;22.35;16.08;;;;;;;;;;5106372;28;20019;-77
2022/09/03 09:34:37;;;;;;;22.88;16.58;;;;;;;;;;5105142;28;20023;-78
2022/09/03 09:37:05;;;;;;;26.58;16.75;;;;;;;;;;5121636;27;20031;-77
2022/09/03 09:39:31;;;;;;;20.63;16.73;;;;;;;;;;5106516;28;20106;-78
2022/09/03 09:41:57;;;;;;;22.02;19.10;;;;;;;;;;5088357;28;20024;-77
2022/09/03 09:44:25;;;;;;;20.02;17.30;;;;;;;;;;5090958;28;20099;-77
2022/09/03 09:46:51;;;;;;;21.00;16.67;;;;;;;;;;5098170;28;20016;-78
2022/09/03 09:49:30;;;;;;;26.02;16.75;;;;;;;;;;5100081;28;20553;-77
2022/09/03 09:52:03;;;;;;;19.65;16.63;;;;;;;;;;5117326;27;20077;-77
2022/09/03 09:54:29;;;;;;;;;;;;;;;;;;5114700;27;20019;-78
2022/09/03 09:56:59;;;;;;;17.13;15.32;;;;;;;;;;5120817;27;20318;-77
2022/09/03 09:59:25;;;;;;;18.25;16.10;;;;;;;;;;5104190;28;20024;-78
2022/09/03 10:02:03;;;;;;;22.73;15.80;;;;;;;;;;5080101;28;20024;-76
2022/09/03 10:04:30;;;;;;;18.30;15.18;;;;;;;;;;5101899;28;20405;-77
2022/09/03 10:07:04;;;;;;;22.80;15.65;;;;;;;;;;5105820;28;20099;-77
2022/09/03 10:09:31;;;;;;;20.85;14.63;;;;;;;;;;5082094;28;20126;-77
2022/09/03 10:12:13;;;;;;;14.95;13.23;;;;;;;;;;5116212;27;20027;-77
2022/09/03 10:14:46;;;;;;;14.93;12.25;;;;;;;;;;5091884;28;20024;-78
2022/09/03 10:17:27;;;;;;;13.00;11.20;;;;;;;;;;5116102;27;20386;-76
2022/09/03 10:22:49;;;;;;;16.13;13.63;;;;;;;;;;5089256;28;20039;-76
2022/09/03 10:25:16;;;;;;;15.75;12.98;;;;;;;;;;5094364;28;20024;-78
2022/09/03 10:27:43;;;;;;;19.75;12.93;;;;;;;;;;5094724;28;20088;-79
2022/09/03 10:30:10;;;;;;;19.60;12.50;;;;;;;;;;5092311;28;20032;-78
2022/09/03 10:32:44;;;;;;;12.55;11.15;;;;;;;;;;5111689;27;20032;-79
2022/09/03 10:35:18;;;;;;;20.08;13.85;;;;;;;;;;5115316;27;20024;-77
2022/09/03 10:37:49;;;;;;;13.88;10.55;;;;;;;;;;5092442;28;20024;-78
2022/09/03 10:40:30;;;;;;;11.70;9.90;;;;;;;;;;5113808;27;20023;-76
2022/09/03 10:42:59;;;;;;;12.30;9.70;;;;;;;;;;5107994;27;20024;-78
2022/09/03 10:45:34;;;;;;;13.55;11.25;;;;;;;;;;5094467;28;20028;-77
2022/09/03 10:48:00;;;;;;;15.88;11.35;;;;;;;;;;5108023;27;20063;-76
2022/09/03 10:50:27;;;;;;;14.00;10.65;;;;;;;;;;5113446;27;20475;-77
2022/09/03 10:53:07;;;;;;;18.25;11.45;;;;;;;;;;5095845;28;20466;-76
2022/09/03 10:55:52;;;;;;;17.55;10.38;;;;;;;;;;5111493;27;20024;-80
2022/09/03 10:58:37;;;;;;;15.23;10.75;;;;;;;;;;5094073;28;20023;-77
2022/09/03 11:01:12;;;;;;;11.52;10.35;;;;;;;;;;5117490;27;20402;-77
2022/09/03 11:03:50;;;;;;;13.30;10.93;;;;;;;;;;5104874;28;20053;-77
2022/09/03 11:06:17;;;;;;;11.43;10.32;;;;;;;;;;5078136;28;20024;-77
2022/09/03 11:08:49;;;;;;;11.32;9.95;;;;;;;;;;5074987;28;20550;-79
2022/09/03 11:11:25;;;;;;;12.63;11.25;;;;;;;;;;5074685;28;20066;-76
2022/09/03 11:13:54;;;;;;;11.82;10.48;;;;;;;;;;5106760;27;20039;-79
2022/09/03 11:16:25;;;;;;;11.23;9.90;;;;;;;;;;5113761;27;20024;-78
2022/09/03 11:18:55;;;;;;;13.50;9.77;;;;;;;;;;5115050;27;20027;-77
2022/09/03 11:21:23;;;;;;;10.95;9.82;;;;;;;;;;5092596;28;20020;-79
2022/09/03 11:24:25;;;;;;;13.75;10.63;;;;;;;;;;5108681;27;20020;-77
2022/09/03 11:27:00;;;;;;;15.57;11.32;;;;;;;;;;4996063;28;20030;-78
2022/09/03 11:29:37;;;;;;;17.35;10.98;;;;;;;;;;5049362;28;20063;-80
2022/09/03 11:32:19;;;;;;;13.27;11.93;;;;;;;;;;5120238;27;20067;-79
2022/09/03 11:34:46;;;;;;;12.23;11.02;;;;;;;;;;5114938;27;20024;-79
2022/09/03 11:37:20;;;;;;;15.63;10.15;;;;;;;;;;5083364;28;20134;-80
2022/09/03 11:39:57;;;;;;;42.47;38.15;;;;;;;;;;5119312;28;20063;-80
2022/09/03 11:42:28;;;;;;;28.00;12.57;;;;;;;;;;5065525;28;20037;-81
2022/09/03 11:44:59;;;;;;;19.65;14.77;;;;;;;;;;5121585;27;20449;-81
2022/09/03 11:47:41;;;;;;;22.70;13.88;;;;;;;;;;5103903;28;20408;-76
2022/09/03 11:50:19;;;;;;;28.83;17.33;;;;;;;;;;5066982;28;20119;-84
2022/09/03 11:52:46;;;;;;;13.85;12.43;;;;;;;;;;5115110;28;20107;-82
2022/09/03 11:55:12;;;;;;;13.00;11.45;;;;;;;;;;5117705;28;20074;-81
2022/09/03 11:57:45;;;;;;;19.60;10.32;;;;;;;;;;5082774;28;20016;-79
2022/09/03 12:00:20;;;;;;;11.32;9.82;;;;;;;;;;5084209;28;20517;-81
2022/09/03 12:02:51;;;;;;;12.25;11.05;;;;;;;;;;5119808;28;20034;-81
2022/09/03 12:05:24;;;;;;;14.40;10.73;;;;;;;;;;5118708;28;20078;-83
2022/09/03 12:07:50;;;;;;;;;;;;;;;;;;5067934;28;20051;-81
2022/09/03 12:10:23;;;;;;;11.25;10.05;;;;;;;;;;5086688;28;20339;-83
2022/09/03 12:12:59;;;;;;;11.40;9.73;;;;;;;;;;5081726;28;20039;-81
2022/09/03 12:15:31;;;;;;;12.52;9.20;;;;;;;;;;5100934;28;20031;-81
2022/09/03 12:18:19;;;;;;;13.37;8.83;;;;;;;;;;5087224;28;20020;-85
2022/09/03 12:20:49;;;;;;;12.68;8.90;;;;;;;;;;5109491;28;20043;-83
2022/09/03 12:23:28;;;;;;;12.75;8.82;;;;;;;;;;5076954;28;20055;-84
2022/09/03 12:25:54;;;;;;;10.90;8.98;;;;;;;;;;5107041;28;20041;-81
2022/09/03 12:28:24;;;;;;;11.55;10.13;;;;;;;;;;5079388;28;20024;-82
2022/09/03 12:30:52;;;;;;;11.63;10.32;;;;;;;;;;5102498;28;20400;-79
2022/09/03 12:33:22;;;;;;;13.05;10.27;;;;;;;;;;5087194;28;20115;-83
2022/09/03 12:35:58;;;;;;;13.68;12.27;;;;;;;;;;5083990;28;20015;-84
2022/09/03 12:38:25;;;;;;;10.30;9.30;;;;;;;;;;5074730;28;20097;-82
2022/09/03 12:40:52;;;;;;;12.32;10.63;;;;;;;;;;5097324;28;20474;-81
2022/09/03 12:43:21;;;;;;;9.80;8.23;;;;;;;;;;5117947;27;20035;-81
2022/09/03 12:45:49;;;;;;;11.73;9.98;;;;;;;;;;5088843;28;20021;-80
2022/09/03 12:48:17;;;;;;;10.68;8.05;;;;;;;;;;5107314;28;20035;-78
2022/09/03 12:50:43;;;;;;;10.57;8.45;;;;;;;;;;5113540;27;20028;-82
2022/09/03 12:53:11;;;;;;;12.27;8.85;;;;;;;;;;5125871;27;20031;-80
2022/09/03 12:55:43;;;;;;;10.73;8.18;;;;;;;;;;5087329;28;20046;-77
2022/09/03 12:58:13;;;;;;;9.85;8.25;;;;;;;;;;5088805;28;20032;-83
2022/09/03 13:00:42;;;;;;;10.63;8.77;;;;;;;;;;5115917;27;20091;-80
2022/09/03 13:03:12;;;;;;;8.95;7.97;;;;;;;;;;5107517;27;20127;-77
2022/09/03 13:05:43;;;;;;;9.30;8.30;;;;;;;;;;5090413;28;20012;-78
2022/09/03 13:08:23;;;;;;;9.10;8.18;;;;;;;;;;5116438;27;20031;-77
2022/09/03 13:10:57;;;;;;;8.88;7.97;;;;;;;;;;5115355;27;20101;-78
2022/09/03 13:13:23;;;;;;;7.95;6.97;;;;;;;;;;5095661;28;20055;-76
2022/09/03 13:16:08;;;;;;;9.57;7.93;;;;;;;;;;5100067;28;20047;-76
2022/09/03 13:18:43;;;;;;;8.40;6.93;;;;;;;;;;5103645;28;20020;-77
2022/09/03 13:21:12;;;;;;;8.32;7.30;;;;;;;;;;5101207;28;20069;-80
2022/09/03 13:23:56;;;;;;;10.95;6.97;;;;;;;;;;5087308;28;20073;-79
2022/09/03 13:26:41;;;;;;;9.15;7.22;;;;;;;;;;5113561;27;20023;-76
2022/09/03 13:29:13;;;;;;;7.65;6.88;;;;;;;;;;5091040;28;20107;-78
2022/09/03 13:31:59;;;;;;;10.63;6.70;;;;;;;;;;5109669;27;20372;-79
2022/09/03 13:34:37;;;;;;;10.93;7.82;;;;;;;;;;5086411;28;20056;-83
2022/09/03 13:37:22;;;;;;;7.75;6.40;;;;;;;;;;5105731;27;20028;-82
2022/09/03 13:39:51;;;;;;;10.10;7.45;;;;;;;;;;5078920;28;20430;-83
2022/09/03 13:42:22;;;;;;;8.52;6.47;;;;;;;;;;5105013;27;20031;-79
2022/09/03 13:44:51;;;;;;;8.52;6.63;;;;;;;;;;5103922;28;20035;-83
2022/09/03 13:47:36;;;;;;;10.60;7.35;;;;;;;;;;5110097;28;20605;-80
2022/09/03 13:50:25;;;;;;;6.93;6.05;;;;;;;;;;5111068;28;20036;-81
2022/09/03 13:53:07;;;;;;;10.10;6.57;;;;;;;;;;5095352;28;20141;-82
2022/09/03 13:55:33;;;;;;;9.88;6.50;;;;;;;;;;5075453;28;20112;-78
2022/09/03 13:58:01;;;;;;;8.60;6.40;;;;;;;;;;5084777;28;20020;-79
2022/09/03 14:00:47;;;;;;;10.55;7.40;;;;;;;;;;5078771;28;20107;-79
2022/09/03 14:03:32;;;;;;;9.63;5.97;;;;;;;;;;5057699;28;20036;-84
2022/09/03 14:06:04;;;;;;;11.13;7.70;;;;;;;;;;5118997;27;20015;-82
2022/09/03 14:08:30;;;;;;;;;;;;;;;;;;5083005;28;20053;-79
2022/09/03 14:11:14;;;;;;;10.88;7.63;;;;;;;;;;5095860;28;20366;-81
2022/09/03 14:13:46;;;;;;;8.57;7.75;;;;;;;;;;5108008;28;20394;-79
2022/09/03 14:16:12;;;;;;;;;;;;;;;;;;5124394;27;20531;-77
2022/09/03 14:18:41;;;;;;;10.63;9.57;;;;;;;;;;5076133;28;19904;-78
2022/09/03 14:21:13;;;;;;;12.63;8.80;;;;;;;;;;5093655;28;20056;-79
2022/09/03 14:23:45;;;;;;;9.88;8.88;;;;;;;;;;5111816;27;20024;-81
2022/09/03 14:26:20;;;;;;;9.38;7.68;;;;;;;;;;5093944;28;20107;-79
2022/09/03 14:28:57;;;;;;;9.45;7.57;;;;;;;;;;5081376;28;20356;-81
2022/09/03 14:31:30;;;;;;;10.93;7.50;;;;;;;;;;5110187;28;20040;-80
2022/09/03 14:33:59;;;;;;;10.60;8.77;;;;;;;;;;5109703;28;20028;-82
2022/09/03 14:36:32;;;;;;;11.93;8.10;;;;;;;;;;5076993;28;20429;-80
2022/09/03 14:39:18;;;;;;;8.15;7.35;;;;;;;;;;5063226;28;20074;-79
2022/09/03 14:41:49;;;;;;;10.50;8.63;;;;;;;;;;5094609;28;20173;-82
2022/09/03 14:44:27;;;;;;;10.00;8.40;;;;;;;;;;5110201;28;20024;-81
2022/09/03 14:46:58;;;;;;;10.32;9.20;;;;;;;;;;5074357;28;20055;-79
2022/09/03 14:49:24;;;;;;;10.52;9.23;;;;;;;;;;5084774;28;20032;-82